sensor_id;sensor_type;location;lat;lon;timestamp;P1;durP1;ratioP1;P2;durP2;ratioP2
61108;SDS011;46995;55.740;37.402;2022-12-29T00:01:45;4.85;;;1.20;;
61108;SDS011;46995;55.740;37.402;2022-12-29T00:04:11;4.13;;;1.10;;
61108;SDS011;46995;55.740;37.402;2022-12-29T00:06:39;6.05;;;1.58;;
61108;SDS011;46995;55.740;37.402;2022-12-29T00:09:05;2.60;;;1.05;;
61108;SDS011;46995;55.740;37.402;2022-12-29T00:11:33;4.93;;;1.20;;
61108;SDS011;46995;55.740;37.402;2022-12-29T00:13:59;8.30;;;1.45;;
61108;SDS011;46995;55.740;37.402;2022-12-29T00:16:44;5.18;;;1.20;;
61108;SDS011;46995;55.740;37.402;2022-12-29T00:19:13;5.20;;;1.15;;
61108;SDS011;46995;55.740;37.402;2022-12-29T00:21:57;3.88;;;1.20;;
61108;SDS011;46995;55.740;37.402;2022-12-29T00:24:43;5.05;;;1.20;;
61108;SDS011;46995;55.740;37.402;2022-12-29T00:30:15;5.72;;;1.27;;
61108;SDS011;46995;55.740;37.402;2022-12-29T00:33:14;7.00;;;1.45;;
61108;SDS011;46995;55.740;37.402;2022-12-29T00:36:02;3.22;;;1.00;;
61108;SDS011;46995;55.740;37.402;2022-12-29T00:38:37;4.07;;;1.02;;
61108;SDS011;46995;55.740;37.402;2022-12-29T00:41:26;8.07;;;1.05;;
61108;SDS011;46995;55.740;37.402;2022-12-29T00:44:11;4.90;;;1.05;;
61108;SDS011;46995;55.740;37.402;2022-12-29T00:46:39;5.28;;;1.33;;
61108;SDS011;46995;55.740;37.402;2022-12-29T00:49:07;4.15;;;1.25;;
61108;SDS011;46995;55.740;37.402;2022-12-29T00:51:53;3.58;;;1.10;;
61108;SDS011;46995;55.740;37.402;2022-12-29T00:54:20;5.70;;;1.33;;
61108;SDS011;46995;55.740;37.402;2022-12-29T00:56:49;6.15;;;1.38;;
61108;SDS011;46995;55.740;37.402;2022-12-29T00:59:16;4.70;;;1.42;;
61108;SDS011;46995;55.740;37.402;2022-12-29T01:01:45;5.82;;;1.20;;
61108;SDS011;46995;55.740;37.402;2022-12-29T01:04:12;5.03;;;1.45;;
61108;SDS011;46995;55.740;37.402;2022-12-29T01:06:39;9.93;;;1.73;;
61108;SDS011;46995;55.740;37.402;2022-12-29T01:09:07;5.25;;;1.45;;
61108;SDS011;46995;55.740;37.402;2022-12-29T01:11:52;4.20;;;1.40;;
61108;SDS011;46995;55.740;37.402;2022-12-29T01:14:18;5.07;;;1.50;;
61108;SDS011;46995;55.740;37.402;2022-12-29T01:16:45;4.43;;;1.65;;
61108;SDS011;46995;55.740;37.402;2022-12-29T01:19:12;6.03;;;1.40;;
61108;SDS011;46995;55.740;37.402;2022-12-29T01:21:38;8.82;;;1.73;;
61108;SDS011;46995;55.740;37.402;2022-12-29T01:24:04;10.35;;;1.73;;
61108;SDS011;46995;55.740;37.402;2022-12-29T01:26:30;8.02;;;1.30;;
61108;SDS011;46995;55.740;37.402;2022-12-29T01:28:56;5.97;;;1.50;;
61108;SDS011;46995;55.740;37.402;2022-12-29T01:31:22;7.72;;;1.65;;
61108;SDS011;46995;55.740;37.402;2022-12-29T01:33:47;7.28;;;1.42;;
61108;SDS011;46995;55.740;37.402;2022-12-29T01:36:17;7.32;;;1.85;;
61108;SDS011;46995;55.740;37.402;2022-12-29T01:38:44;8.57;;;1.27;;
61108;SDS011;46995;55.740;37.402;2022-12-29T01:41:11;5.45;;;1.70;;
61108;SDS011;46995;55.740;37.402;2022-12-29T01:43:38;7.70;;;1.40;;
61108;SDS011;46995;55.740;37.402;2022-12-29T01:49:16;4.82;;;1.73;;
61108;SDS011;46995;55.740;37.402;2022-12-29T01:54:35;4.80;;;1.80;;
61108;SDS011;46995;55.740;37.402;2022-12-29T01:57:07;5.18;;;1.27;;
61108;SDS011;46995;55.740;37.402;2022-12-29T01:59:38;7.20;;;1.70;;
61108;SDS011;46995;55.740;37.402;2022-12-29T02:02:09;7.85;;;1.77;;
61108;SDS011;46995;55.740;37.402;2022-12-29T02:04:36;12.05;;;1.65;;
61108;SDS011;46995;55.740;37.402;2022-12-29T02:07:11;8.90;;;1.55;;
61108;SDS011;46995;55.740;37.402;2022-12-29T02:09:48;12.30;;;1.70;;
61108;SDS011;46995;55.740;37.402;2022-12-29T02:12:16;13.90;;;2.03;;
61108;SDS011;46995;55.740;37.402;2022-12-29T02:14:44;8.95;;;1.63;;
61108;SDS011;46995;55.740;37.402;2022-12-29T02:17:18;8.68;;;1.60;;
61108;SDS011;46995;55.740;37.402;2022-12-29T02:33:34;14.57;;;1.80;;
61108;SDS011;46995;55.740;37.402;2022-12-29T02:36:26;5.60;;;1.65;;
61108;SDS011;46995;55.740;37.402;2022-12-29T02:41:37;4.35;;;1.52;;
61108;SDS011;46995;55.740;37.402;2022-12-29T02:44:15;4.35;;;1.40;;
61108;SDS011;46995;55.740;37.402;2022-12-29T02:49:36;5.93;;;1.33;;
61108;SDS011;46995;55.740;37.402;2022-12-29T02:52:27;7.25;;;1.67;;
61108;SDS011;46995;55.740;37.402;2022-12-29T02:55:01;8.45;;;2.22;;
61108;SDS011;46995;55.740;37.402;2022-12-29T03:00:03;7.00;;;1.83;;
61108;SDS011;46995;55.740;37.402;2022-12-29T03:10:37;8.80;;;1.77;;
61108;SDS011;46995;55.740;37.402;2022-12-29T03:16:24;7.88;;;1.77;;
61108;SDS011;46995;55.740;37.402;2022-12-29T03:19:26;4.90;;;1.80;;
61108;SDS011;46995;55.740;37.402;2022-12-29T03:22:04;8.50;;;1.70;;
61108;SDS011;46995;55.740;37.402;2022-12-29T03:25:22;9.50;;;1.40;;
61108;SDS011;46995;55.740;37.402;2022-12-29T03:27:55;5.78;;;1.55;;
61108;SDS011;46995;55.740;37.402;2022-12-29T03:30:26;5.05;;;1.60;;
61108;SDS011;46995;55.740;37.402;2022-12-29T03:32:56;8.05;;;1.70;;
61108;SDS011;46995;55.740;37.402;2022-12-29T03:35:30;7.40;;;1.80;;
61108;SDS011;46995;55.740;37.402;2022-12-29T03:38:03;4.88;;;1.63;;
61108;SDS011;46995;55.740;37.402;2022-12-29T03:40:33;7.22;;;2.10;;
61108;SDS011;46995;55.740;37.402;2022-12-29T03:43:00;4.87;;;1.43;;
61108;SDS011;46995;55.740;37.402;2022-12-29T03:45:29;7.45;;;1.42;;
61108;SDS011;46995;55.740;37.402;2022-12-29T03:47:54;7.90;;;1.48;;
61108;SDS011;46995;55.740;37.402;2022-12-29T03:50:20;4.93;;;1.67;;
61108;SDS011;46995;55.740;37.402;2022-12-29T03:52:46;10.05;;;1.83;;
61108;SDS011;46995;55.740;37.402;2022-12-29T03:55:12;9.85;;;1.85;;
61108;SDS011;46995;55.740;37.402;2022-12-29T03:57:39;6.97;;;1.53;;
61108;SDS011;46995;55.740;37.402;2022-12-29T04:00:08;6.13;;;1.58;;
61108;SDS011;46995;55.740;37.402;2022-12-29T04:02:44;12.80;;;2.25;;
61108;SDS011;46995;55.740;37.402;2022-12-29T04:05:19;7.88;;;2.03;;
61108;SDS011;46995;55.740;37.402;2022-12-29T04:07:46;4.60;;;1.50;;
61108;SDS011;46995;55.740;37.402;2022-12-29T04:10:12;4.80;;;1.45;;
61108;SDS011;46995;55.740;37.402;2022-12-29T04:12:47;7.40;;;1.98;;
61108;SDS011;46995;55.740;37.402;2022-12-29T04:15:13;7.65;;;2.03;;
61108;SDS011;46995;55.740;37.402;2022-12-29T04:17:39;4.85;;;1.30;;
61108;SDS011;46995;55.740;37.402;2022-12-29T04:20:05;10.68;;;2.35;;
61108;SDS011;46995;55.740;37.402;2022-12-29T04:23:04;7.87;;;1.67;;
61108;SDS011;46995;55.740;37.402;2022-12-29T04:25:33;6.88;;;1.80;;
61108;SDS011;46995;55.740;37.402;2022-12-29T04:27:59;10.75;;;1.80;;
61108;SDS011;46995;55.740;37.402;2022-12-29T04:31:01;6.72;;;1.63;;
61108;SDS011;46995;55.740;37.402;2022-12-29T04:33:33;14.43;;;1.88;;
61108;SDS011;46995;55.740;37.402;2022-12-29T04:36:00;10.55;;;1.92;;
61108;SDS011;46995;55.740;37.402;2022-12-29T04:38:27;6.18;;;2.03;;
61108;SDS011;46995;55.740;37.402;2022-12-29T04:40:53;10.17;;;2.17;;
61108;SDS011;46995;55.740;37.402;2022-12-29T04:43:21;7.53;;;2.03;;
61108;SDS011;46995;55.740;37.402;2022-12-29T04:46:16;5.57;;;2.05;;
61108;SDS011;46995;55.740;37.402;2022-12-29T04:49:00;11.13;;;2.00;;
61108;SDS011;46995;55.740;37.402;2022-12-29T04:52:05;11.52;;;2.03;;
61108;SDS011;46995;55.740;37.402;2022-12-29T04:54:32;7.30;;;1.92;;
61108;SDS011;46995;55.740;37.402;2022-12-29T04:57:08;6.82;;;2.00;;
61108;SDS011;46995;55.740;37.402;2022-12-29T04:59:36;8.95;;;2.05;;
61108;SDS011;46995;55.740;37.402;2022-12-29T05:02:03;5.90;;;1.98;;
61108;SDS011;46995;55.740;37.402;2022-12-29T05:04:31;9.00;;;2.60;;
61108;SDS011;46995;55.740;37.402;2022-12-29T05:06:57;11.40;;;2.08;;
61108;SDS011;46995;55.740;37.402;2022-12-29T05:09:23;6.95;;;1.90;;
61108;SDS011;46995;55.740;37.402;2022-12-29T05:11:50;13.45;;;2.83;;
61108;SDS011;46995;55.740;37.402;2022-12-29T05:14:16;9.63;;;2.22;;
61108;SDS011;46995;55.740;37.402;2022-12-29T05:16:42;10.45;;;2.10;;
61108;SDS011;46995;55.740;37.402;2022-12-29T05:19:09;12.10;;;2.50;;
61108;SDS011;46995;55.740;37.402;2022-12-29T05:21:35;9.02;;;2.88;;
61108;SDS011;46995;55.740;37.402;2022-12-29T05:24:01;5.10;;;2.15;;
61108;SDS011;46995;55.740;37.402;2022-12-29T05:26:27;9.35;;;2.40;;
61108;SDS011;46995;55.740;37.402;2022-12-29T05:29:07;12.68;;;2.25;;
61108;SDS011;46995;55.740;37.402;2022-12-29T05:31:33;7.70;;;1.98;;
61108;SDS011;46995;55.740;37.402;2022-12-29T05:34:02;7.85;;;2.42;;
61108;SDS011;46995;55.740;37.402;2022-12-29T05:36:28;51.40;;;22.60;;
61108;SDS011;46995;55.740;37.402;2022-12-29T05:38:58;11.50;;;2.53;;
61108;SDS011;46995;55.740;37.402;2022-12-29T05:41:25;13.10;;;2.50;;
61108;SDS011;46995;55.740;37.402;2022-12-29T05:44:20;11.07;;;4.32;;
61108;SDS011;46995;55.740;37.402;2022-12-29T05:47:03;11.20;;;2.58;;
61108;SDS011;46995;55.740;37.402;2022-12-29T05:50:04;8.80;;;2.03;;
61108;SDS011;46995;55.740;37.402;2022-12-29T05:52:48;12.25;;;2.42;;
61108;SDS011;46995;55.740;37.402;2022-12-29T05:55:14;6.30;;;2.33;;
61108;SDS011;46995;55.740;37.402;2022-12-29T05:57:44;10.27;;;2.10;;
61108;SDS011;46995;55.740;37.402;2022-12-29T06:00:13;9.02;;;2.20;;
61108;SDS011;46995;55.740;37.402;2022-12-29T06:02:45;7.88;;;1.88;;
61108;SDS011;46995;55.740;37.402;2022-12-29T06:05:11;10.13;;;2.90;;
61108;SDS011;46995;55.740;37.402;2022-12-29T06:07:38;7.07;;;1.83;;
61108;SDS011;46995;55.740;37.402;2022-12-29T06:10:05;3.67;;;1.70;;
61108;SDS011;46995;55.740;37.402;2022-12-29T06:12:40;5.35;;;1.70;;
61108;SDS011;46995;55.740;37.402;2022-12-29T06:15:05;6.55;;;2.00;;
61108;SDS011;46995;55.740;37.402;2022-12-29T06:17:32;5.53;;;2.20;;
61108;SDS011;46995;55.740;37.402;2022-12-29T06:19:58;6.03;;;1.70;;
61108;SDS011;46995;55.740;37.402;2022-12-29T06:22:26;6.90;;;2.05;;
61108;SDS011;46995;55.740;37.402;2022-12-29T06:24:52;9.05;;;2.05;;
61108;SDS011;46995;55.740;37.402;2022-12-29T06:27:18;8.57;;;1.75;;
61108;SDS011;46995;55.740;37.402;2022-12-29T06:29:44;4.78;;;1.77;;
61108;SDS011;46995;55.740;37.402;2022-12-29T06:32:12;5.93;;;1.95;;
61108;SDS011;46995;55.740;37.402;2022-12-29T06:34:44;9.52;;;2.28;;
61108;SDS011;46995;55.740;37.402;2022-12-29T06:37:10;15.55;;;3.17;;
61108;SDS011;46995;55.740;37.402;2022-12-29T06:39:36;11.75;;;2.42;;
61108;SDS011;46995;55.740;37.402;2022-12-29T06:42:06;8.15;;;2.03;;
61108;SDS011;46995;55.740;37.402;2022-12-29T06:44:43;7.80;;;1.95;;
61108;SDS011;46995;55.740;37.402;2022-12-29T06:47:09;10.20;;;2.33;;
61108;SDS011;46995;55.740;37.402;2022-12-29T06:49:35;11.80;;;2.35;;
61108;SDS011;46995;55.740;37.402;2022-12-29T06:52:00;6.30;;;2.40;;
61108;SDS011;46995;55.740;37.402;2022-12-29T06:54:29;7.70;;;2.50;;
61108;SDS011;46995;55.740;37.402;2022-12-29T06:56:56;6.10;;;2.78;;
61108;SDS011;46995;55.740;37.402;2022-12-29T06:59:23;12.30;;;2.67;;
61108;SDS011;46995;55.740;37.402;2022-12-29T07:01:49;11.05;;;2.60;;
61108;SDS011;46995;55.740;37.402;2022-12-29T07:04:16;8.20;;;2.58;;
61108;SDS011;46995;55.740;37.402;2022-12-29T07:06:46;9.25;;;2.92;;
61108;SDS011;46995;55.740;37.402;2022-12-29T07:09:12;7.82;;;3.15;;
61108;SDS011;46995;55.740;37.402;2022-12-29T07:11:38;9.95;;;2.90;;
61108;SDS011;46995;55.740;37.402;2022-12-29T07:14:03;16.02;;;3.70;;
61108;SDS011;46995;55.740;37.402;2022-12-29T07:16:29;11.50;;;2.83;;
61108;SDS011;46995;55.740;37.402;2022-12-29T07:18:56;6.55;;;2.50;;
61108;SDS011;46995;55.740;37.402;2022-12-29T07:21:24;7.72;;;2.72;;
61108;SDS011;46995;55.740;37.402;2022-12-29T07:23:49;10.63;;;3.20;;
61108;SDS011;46995;55.740;37.402;2022-12-29T07:26:15;11.85;;;3.03;;
61108;SDS011;46995;55.740;37.402;2022-12-29T07:28:44;10.30;;;2.67;;
61108;SDS011;46995;55.740;37.402;2022-12-29T07:31:16;10.95;;;2.75;;
61108;SDS011;46995;55.740;37.402;2022-12-29T07:33:44;7.88;;;2.67;;
61108;SDS011;46995;55.740;37.402;2022-12-29T07:36:11;5.20;;;2.80;;
61108;SDS011;46995;55.740;37.402;2022-12-29T07:38:39;9.77;;;3.53;;
61108;SDS011;46995;55.740;37.402;2022-12-29T07:41:08;11.50;;;3.33;;
61108;SDS011;46995;55.740;37.402;2022-12-29T07:43:34;9.00;;;3.10;;
61108;SDS011;46995;55.740;37.402;2022-12-29T07:46:32;13.63;;;3.00;;
61108;SDS011;46995;55.740;37.402;2022-12-29T07:49:01;16.25;;;3.40;;
61108;SDS011;46995;55.740;37.402;2022-12-29T07:51:26;9.85;;;3.95;;
61108;SDS011;46995;55.740;37.402;2022-12-29T07:53:52;11.35;;;3.88;;
61108;SDS011;46995;55.740;37.402;2022-12-29T07:56:18;15.30;;;4.35;;
61108;SDS011;46995;55.740;37.402;2022-12-29T07:58:44;18.25;;;4.55;;
61108;SDS011;46995;55.740;37.402;2022-12-29T08:01:09;10.20;;;4.32;;
61108;SDS011;46995;55.740;37.402;2022-12-29T08:03:35;11.65;;;4.68;;
61108;SDS011;46995;55.740;37.402;2022-12-29T08:06:01;8.07;;;4.13;;
61108;SDS011;46995;55.740;37.402;2022-12-29T08:08:27;11.57;;;4.68;;
61108;SDS011;46995;55.740;37.402;2022-12-29T08:10:53;12.52;;;4.28;;
61108;SDS011;46995;55.740;37.402;2022-12-29T08:13:19;17.15;;;4.28;;
61108;SDS011;46995;55.740;37.402;2022-12-29T08:15:46;8.05;;;4.22;;
61108;SDS011;46995;55.740;37.402;2022-12-29T08:18:12;10.95;;;3.97;;
61108;SDS011;46995;55.740;37.402;2022-12-29T08:20:37;13.60;;;4.05;;
61108;SDS011;46995;55.740;37.402;2022-12-29T08:23:03;13.13;;;4.40;;
61108;SDS011;46995;55.740;37.402;2022-12-29T08:25:29;9.25;;;4.88;;
61108;SDS011;46995;55.740;37.402;2022-12-29T08:27:55;10.20;;;4.70;;
61108;SDS011;46995;55.740;37.402;2022-12-29T08:30:20;14.07;;;4.93;;
61108;SDS011;46995;55.740;37.402;2022-12-29T08:32:47;11.32;;;5.45;;
61108;SDS011;46995;55.740;37.402;2022-12-29T08:35:12;15.55;;;6.15;;
61108;SDS011;46995;55.740;37.402;2022-12-29T08:37:38;12.02;;;5.38;;
61108;SDS011;46995;55.740;37.402;2022-12-29T08:40:04;11.82;;;4.65;;
61108;SDS011;46995;55.740;37.402;2022-12-29T08:42:31;45.57;;;18.13;;
61108;SDS011;46995;55.740;37.402;2022-12-29T08:44:58;8.77;;;5.07;;
61108;SDS011;46995;55.740;37.402;2022-12-29T08:47:24;14.55;;;5.63;;
61108;SDS011;46995;55.740;37.402;2022-12-29T08:49:50;19.67;;;6.55;;
61108;SDS011;46995;55.740;37.402;2022-12-29T08:52:16;17.83;;;6.00;;
61108;SDS011;46995;55.740;37.402;2022-12-29T08:54:42;13.55;;;6.68;;
61108;SDS011;46995;55.740;37.402;2022-12-29T08:57:08;21.05;;;7.20;;
61108;SDS011;46995;55.740;37.402;2022-12-29T08:59:41;15.38;;;7.13;;
61108;SDS011;46995;55.740;37.402;2022-12-29T09:02:10;14.93;;;7.47;;
61108;SDS011;46995;55.740;37.402;2022-12-29T09:04:38;15.02;;;7.95;;
61108;SDS011;46995;55.740;37.402;2022-12-29T09:07:04;18.30;;;7.70;;
61108;SDS011;46995;55.740;37.402;2022-12-29T09:09:30;16.67;;;7.25;;
61108;SDS011;46995;55.740;37.402;2022-12-29T09:11:57;21.80;;;8.40;;
61108;SDS011;46995;55.740;37.402;2022-12-29T09:14:22;15.82;;;8.18;;
61108;SDS011;46995;55.740;37.402;2022-12-29T09:16:50;17.70;;;7.78;;
61108;SDS011;46995;55.740;37.402;2022-12-29T09:19:36;17.52;;;7.90;;
61108;SDS011;46995;55.740;37.402;2022-12-29T09:22:03;17.80;;;7.25;;
61108;SDS011;46995;55.740;37.402;2022-12-29T09:24:29;15.32;;;7.93;;
61108;SDS011;46995;55.740;37.402;2022-12-29T09:26:56;13.13;;;6.97;;
61108;SDS011;46995;55.740;37.402;2022-12-29T09:29:22;148.25;;;75.25;;
61108;SDS011;46995;55.740;37.402;2022-12-29T09:31:47;16.48;;;8.18;;
61108;SDS011;46995;55.740;37.402;2022-12-29T09:34:13;26.77;;;10.07;;
61108;SDS011;46995;55.740;37.402;2022-12-29T09:36:39;16.33;;;7.45;;
61108;SDS011;46995;55.740;37.402;2022-12-29T09:39:05;12.65;;;7.13;;
61108;SDS011;46995;55.740;37.402;2022-12-29T09:47:21;14.80;;;7.15;;
61108;SDS011;46995;55.740;37.402;2022-12-29T09:52:53;15.07;;;7.03;;
61108;SDS011;46995;55.740;37.402;2022-12-29T09:55:22;15.85;;;7.50;;
61108;SDS011;46995;55.740;37.402;2022-12-29T10:01:24;13.02;;;6.20;;
61108;SDS011;46995;55.740;37.402;2022-12-29T10:03:56;13.45;;;6.25;;
61108;SDS011;46995;55.740;37.402;2022-12-29T10:22:38;13.27;;;5.13;;
61108;SDS011;46995;55.740;37.402;2022-12-29T10:25:18;14.07;;;4.80;;
61108;SDS011;46995;55.740;37.402;2022-12-29T10:27:49;13.55;;;4.97;;
61108;SDS011;46995;55.740;37.402;2022-12-29T10:30:18;10.25;;;5.28;;
61108;SDS011;46995;55.740;37.402;2022-12-29T10:32:51;10.43;;;5.13;;
61108;SDS011;46995;55.740;37.402;2022-12-29T10:35:21;13.07;;;4.85;;
61108;SDS011;46995;55.740;37.402;2022-12-29T10:37:55;11.68;;;4.80;;
61108;SDS011;46995;55.740;37.402;2022-12-29T10:40:48;16.10;;;5.28;;
61108;SDS011;46995;55.740;37.402;2022-12-29T10:45:48;16.23;;;5.85;;
61108;SDS011;46995;55.740;37.402;2022-12-29T10:48:28;12.02;;;5.55;;
61108;SDS011;46995;55.740;37.402;2022-12-29T10:50:57;16.15;;;6.68;;
61108;SDS011;46995;55.740;37.402;2022-12-29T10:53:38;13.00;;;5.53;;
61108;SDS011;46995;55.740;37.402;2022-12-29T10:56:20;11.25;;;5.30;;
61108;SDS011;46995;55.740;37.402;2022-12-29T10:58:53;11.73;;;5.55;;
61108;SDS011;46995;55.740;37.402;2022-12-29T11:01:22;20.13;;;6.82;;
61108;SDS011;46995;55.740;37.402;2022-12-29T11:06:25;14.18;;;6.03;;
61108;SDS011;46995;55.740;37.402;2022-12-29T11:11:28;12.73;;;5.82;;
61108;SDS011;46995;55.740;37.402;2022-12-29T11:14:11;12.23;;;6.35;;
61108;SDS011;46995;55.740;37.402;2022-12-29T11:16:44;12.90;;;6.32;;
61108;SDS011;46995;55.740;37.402;2022-12-29T11:19:25;12.23;;;6.35;;
61108;SDS011;46995;55.740;37.402;2022-12-29T11:21:53;18.67;;;6.45;;
61108;SDS011;46995;55.740;37.402;2022-12-29T11:24:26;19.40;;;7.70;;
61108;SDS011;46995;55.740;37.402;2022-12-29T11:27:30;20.40;;;7.22;;
61108;SDS011;46995;55.740;37.402;2022-12-29T11:29:58;12.07;;;6.30;;
61108;SDS011;46995;55.740;37.402;2022-12-29T11:32:25;11.57;;;6.85;;
61108;SDS011;46995;55.740;37.402;2022-12-29T11:34:52;12.90;;;8.68;;
61108;SDS011;46995;55.740;37.402;2022-12-29T11:37:19;16.45;;;6.90;;
61108;SDS011;46995;55.740;37.402;2022-12-29T11:40:05;12.80;;;6.65;;
61108;SDS011;46995;55.740;37.402;2022-12-29T11:42:41;14.82;;;7.10;;
61108;SDS011;46995;55.740;37.402;2022-12-29T11:47:42;11.18;;;6.63;;
61108;SDS011;46995;55.740;37.402;2022-12-29T11:50:23;10.60;;;6.53;;
61108;SDS011;46995;55.740;37.402;2022-12-29T11:52:58;15.32;;;6.45;;
61108;SDS011;46995;55.740;37.402;2022-12-29T11:55:28;15.13;;;7.05;;
61108;SDS011;46995;55.740;37.402;2022-12-29T12:00:24;16.88;;;6.75;;
61108;SDS011;46995;55.740;37.402;2022-12-29T12:05:45;14.10;;;6.60;;
61108;SDS011;46995;55.740;37.402;2022-12-29T12:11:16;16.65;;;7.13;;
61108;SDS011;46995;55.740;37.402;2022-12-29T12:17:12;17.23;;;7.68;;
61108;SDS011;46995;55.740;37.402;2022-12-29T12:19:45;21.33;;;7.43;;
61108;SDS011;46995;55.740;37.402;2022-12-29T12:22:32;16.52;;;7.53;;
61108;SDS011;46995;55.740;37.402;2022-12-29T12:25:11;19.30;;;8.20;;
61108;SDS011;46995;55.740;37.402;2022-12-29T12:30:40;20.90;;;7.72;;
61108;SDS011;46995;55.740;37.402;2022-12-29T12:33:17;18.92;;;8.35;;
61108;SDS011;46995;55.740;37.402;2022-12-29T12:47:16;17.75;;;7.38;;
61108;SDS011;46995;55.740;37.402;2022-12-29T12:50:01;20.73;;;7.82;;
61108;SDS011;46995;55.740;37.402;2022-12-29T12:55:30;15.15;;;7.13;;
61108;SDS011;46995;55.740;37.402;2022-12-29T13:18:17;21.38;;;8.90;;
61108;SDS011;46995;55.740;37.402;2022-12-29T13:20:55;23.58;;;9.05;;
61108;SDS011;46995;55.740;37.402;2022-12-29T13:28:52;20.38;;;9.48;;
61108;SDS011;46995;55.740;37.402;2022-12-29T13:37:07;20.33;;;9.05;;
61108;SDS011;46995;55.740;37.402;2022-12-29T13:39:40;25.73;;;9.82;;
61108;SDS011;46995;55.740;37.402;2022-12-29T13:42:11;24.27;;;9.40;;
61108;SDS011;46995;55.740;37.402;2022-12-29T13:44:53;23.25;;;10.98;;
61108;SDS011;46995;55.740;37.402;2022-12-29T13:47:31;24.05;;;9.85;;
61108;SDS011;46995;55.740;37.402;2022-12-29T13:50:02;25.73;;;10.68;;
61108;SDS011;46995;55.740;37.402;2022-12-29T13:52:43;27.92;;;12.63;;
61108;SDS011;46995;55.740;37.402;2022-12-29T14:03:56;29.13;;;11.05;;
61108;SDS011;46995;55.740;37.402;2022-12-29T14:06:31;28.88;;;10.65;;
61108;SDS011;46995;55.740;37.402;2022-12-29T14:09:04;33.03;;;12.82;;
61108;SDS011;46995;55.740;37.402;2022-12-29T14:11:32;27.50;;;11.55;;
61108;SDS011;46995;55.740;37.402;2022-12-29T14:14:35;24.40;;;11.80;;
61108;SDS011;46995;55.740;37.402;2022-12-29T14:17:08;28.42;;;11.88;;
61108;SDS011;46995;55.740;37.402;2022-12-29T14:19:37;27.27;;;12.02;;
61108;SDS011;46995;55.740;37.402;2022-12-29T14:22:07;31.33;;;13.40;;
61108;SDS011;46995;55.740;37.402;2022-12-29T14:34:58;25.33;;;12.77;;
61108;SDS011;46995;55.740;37.402;2022-12-29T14:37:33;28.48;;;13.27;;
61108;SDS011;46995;55.740;37.402;2022-12-29T14:42:51;31.38;;;11.43;;
61108;SDS011;46995;55.740;37.402;2022-12-29T14:47:51;31.10;;;13.40;;
61108;SDS011;46995;55.740;37.402;2022-12-29T14:52:52;31.50;;;12.35;;
61108;SDS011;46995;55.740;37.402;2022-12-29T15:00:56;31.50;;;12.85;;
61108;SDS011;46995;55.740;37.402;2022-12-29T15:03:30;33.28;;;13.45;;
61108;SDS011;46995;55.740;37.402;2022-12-29T15:06:06;28.27;;;12.32;;
61108;SDS011;46995;55.740;37.402;2022-12-29T15:08:37;31.63;;;13.82;;
61108;SDS011;46995;55.740;37.402;2022-12-29T15:11:17;31.08;;;13.05;;
61108;SDS011;46995;55.740;37.402;2022-12-29T15:13:48;34.35;;;13.98;;
61108;SDS011;46995;55.740;37.402;2022-12-29T15:16:22;33.80;;;13.07;;
61108;SDS011;46995;55.740;37.402;2022-12-29T15:18:58;34.40;;;12.90;;
61108;SDS011;46995;55.740;37.402;2022-12-29T15:21:30;36.92;;;13.73;;
61108;SDS011;46995;55.740;37.402;2022-12-29T15:23:59;29.38;;;12.65;;
61108;SDS011;46995;55.740;37.402;2022-12-29T15:26:45;37.35;;;14.73;;
61108;SDS011;46995;55.740;37.402;2022-12-29T15:31:57;31.88;;;12.95;;
61108;SDS011;46995;55.740;37.402;2022-12-29T15:34:25;31.40;;;14.05;;
61108;SDS011;46995;55.740;37.402;2022-12-29T15:36:56;33.92;;;13.27;;
61108;SDS011;46995;55.740;37.402;2022-12-29T15:39:29;32.72;;;13.95;;
61108;SDS011;46995;55.740;37.402;2022-12-29T15:41:56;34.08;;;14.27;;
61108;SDS011;46995;55.740;37.402;2022-12-29T15:44:29;39.33;;;14.70;;
61108;SDS011;46995;55.740;37.402;2022-12-29T15:47:02;33.97;;;13.40;;
61108;SDS011;46995;55.740;37.402;2022-12-29T15:49:31;32.10;;;13.38;;
61108;SDS011;46995;55.740;37.402;2022-12-29T15:51:57;36.00;;;13.63;;
61108;SDS011;46995;55.740;37.402;2022-12-29T15:54:24;34.17;;;14.13;;
61108;SDS011;46995;55.740;37.402;2022-12-29T15:56:54;29.77;;;13.63;;
61108;SDS011;46995;55.740;37.402;2022-12-29T15:59:28;35.88;;;14.32;;
61108;SDS011;46995;55.740;37.402;2022-12-29T16:01:56;32.17;;;14.07;;
61108;SDS011;46995;55.740;37.402;2022-12-29T16:04:27;37.65;;;13.98;;
61108;SDS011;46995;55.740;37.402;2022-12-29T16:06:59;39.42;;;14.70;;
61108;SDS011;46995;55.740;37.402;2022-12-29T16:09:29;35.10;;;13.73;;
61108;SDS011;46995;55.740;37.402;2022-12-29T16:11:57;37.67;;;14.77;;
61108;SDS011;46995;55.740;37.402;2022-12-29T16:14:31;34.35;;;13.93;;
61108;SDS011;46995;55.740;37.402;2022-12-29T16:17:03;37.13;;;14.40;;
61108;SDS011;46995;55.740;37.402;2022-12-29T16:19:35;36.10;;;14.27;;
61108;SDS011;46995;55.740;37.402;2022-12-29T16:22:11;37.40;;;14.82;;
61108;SDS011;46995;55.740;37.402;2022-12-29T16:24:42;40.58;;;14.50;;
61108;SDS011;46995;55.740;37.402;2022-12-29T16:30:20;38.17;;;14.68;;
61108;SDS011;46995;55.740;37.402;2022-12-29T16:32:49;31.83;;;14.48;;
61108;SDS011;46995;55.740;37.402;2022-12-29T16:35:21;38.95;;;15.27;;
61108;SDS011;46995;55.740;37.402;2022-12-29T16:37:49;33.80;;;16.05;;
61108;SDS011;46995;55.740;37.402;2022-12-29T16:43:25;37.60;;;15.82;;
61108;SDS011;46995;55.740;37.402;2022-12-29T16:48:27;39.63;;;15.27;;
61108;SDS011;46995;55.740;37.402;2022-12-29T16:51:01;46.17;;;15.82;;
61108;SDS011;46995;55.740;37.402;2022-12-29T16:53:32;36.17;;;16.33;;
61108;SDS011;46995;55.740;37.402;2022-12-29T16:56:03;42.20;;;15.18;;
61108;SDS011;46995;55.740;37.402;2022-12-29T16:58:33;37.90;;;15.43;;
61108;SDS011;46995;55.740;37.402;2022-12-29T17:01:00;37.03;;;15.55;;
61108;SDS011;46995;55.740;37.402;2022-12-29T17:03:38;34.83;;;15.73;;
61108;SDS011;46995;55.740;37.402;2022-12-29T17:06:10;39.30;;;16.10;;
61108;SDS011;46995;55.740;37.402;2022-12-29T17:08:41;37.58;;;14.98;;
61108;SDS011;46995;55.740;37.402;2022-12-29T17:17:18;42.67;;;16.70;;
61108;SDS011;46995;55.740;37.402;2022-12-29T17:20:15;32.13;;;13.85;;
61108;SDS011;46995;55.740;37.402;2022-12-29T17:22:49;42.67;;;14.25;;
61108;SDS011;46995;55.740;37.402;2022-12-29T17:25:39;34.47;;;14.35;;
61108;SDS011;46995;55.740;37.402;2022-12-29T17:28:07;32.00;;;13.30;;
61108;SDS011;46995;55.740;37.402;2022-12-29T17:30:44;33.53;;;13.68;;
61108;SDS011;46995;55.740;37.402;2022-12-29T17:33:13;33.75;;;14.55;;
61108;SDS011;46995;55.740;37.402;2022-12-29T17:35:41;33.60;;;12.85;;
61108;SDS011;46995;55.740;37.402;2022-12-29T17:40:43;30.98;;;13.93;;
61108;SDS011;46995;55.740;37.402;2022-12-29T17:43:10;31.30;;;13.82;;
61108;SDS011;46995;55.740;37.402;2022-12-29T17:45:38;36.35;;;13.48;;
61108;SDS011;46995;55.740;37.402;2022-12-29T17:48:12;35.85;;;16.02;;
61108;SDS011;46995;55.740;37.402;2022-12-29T17:50:39;36.67;;;15.65;;
61108;SDS011;46995;55.740;37.402;2022-12-29T17:53:09;30.67;;;15.27;;
61108;SDS011;46995;55.740;37.402;2022-12-29T17:55:37;38.35;;;15.45;;
61108;SDS011;46995;55.740;37.402;2022-12-29T17:58:17;36.83;;;15.57;;
61108;SDS011;46995;55.740;37.402;2022-12-29T18:00:43;40.95;;;15.88;;
61108;SDS011;46995;55.740;37.402;2022-12-29T18:03:13;40.88;;;16.05;;